TJIG/SIG METAR and TAF weather

Enter ICAO airport designator
Station Type Date Time Source
TJIG METAR 2019/12/12 22:55 UTC NOAA

TJIG 122255Z 08012G33KT 6SM +SHRA SCT030 BKN060 25/22 A2994 RMK LAST


Station Type Date Time Source
TJIG Decoded METAR 2019/12/12 22:55 UTC NOAA

Station name not available
Dec 12, 2019 - 05:55 PM EST / 2019.12.12 2255 UTC
Wind: from the E (080 degrees) at 14 MPH (12 KT) gusting to 38 MPH (33 KT):0
Visibility: 6 mile(s):0
Sky conditions: mostly cloudy
Weather: heavy rain showers
Temperature: 77 F (25 C)
Dew Point: 71 F (22 C)
Relative Humidity: 83%
Pressure (altimeter): 29.94 in. Hg (1013 hPa)
ob: TJIG 122255Z 08012G33KT 6SM +SHRA SCT030 BKN060 25/22 A2994 RMK LAST
cycle: 23

Station Type Date Time Source
TJIG TAF UTC NOAA

Error!

Example: see airport list